Time;durP1;ratioP1;P1;durP2;ratioP2;P2;SDS_P1;SDS_P2;PMS_P1;PMS_P2;Temp;Humidity;BMP_temperature;BMP_pressure;BME280_temperature;BME280_humidity;BME280_pressure;Samples;Min_cycle;Max_cycle;Signal;HPM_P1;HPM_P2
2021/11/25 00:01:42;;;;;;;21.40;14.45;;;3.00;99.90;;;;;;5050497;28;20043;-79
2021/11/25 00:04:08;;;;;;;22.08;13.95;;;2.80;99.90;;;;;;5053892;28;20085;-78
2021/11/25 00:06:34;;;;;;;21.52;13.50;;;2.90;99.90;;;;;;5053288;28;20033;-80
2021/11/25 00:08:59;;;;;;;21.90;14.60;;;3.00;99.90;;;;;;5048412;28;20029;-78
2021/11/25 00:11:25;;;;;;;21.17;14.10;;;3.00;99.90;;;;;;5050239;28;20017;-78
2021/11/25 00:13:51;;;;;;;19.40;13.60;;;2.90;99.90;;;;;;5048565;28;20052;-79
2021/11/25 00:16:17;;;;;;;20.80;15.32;;;2.90;99.90;;;;;;5044918;28;20038;-79
2021/11/25 00:18:43;;;;;;;22.83;14.88;;;3.00;99.90;;;;;;5046967;28;20036;-79
2021/11/25 00:21:09;;;;;;;19.58;13.88;;;3.00;99.90;;;;;;5050769;28;20025;-78
2021/11/25 00:23:36;;;;;;;23.73;13.98;;;2.90;99.90;;;;;;5051686;28;20017;-78
2021/11/25 00:26:02;;;;;;;21.38;15.32;;;2.90;99.90;;;;;;5050441;28;20022;-78
2021/11/25 00:28:28;;;;;;;19.58;13.43;;;2.80;99.90;;;;;;5055291;28;20040;-79
2021/11/25 00:30:53;;;;;;;19.50;13.35;;;2.80;99.90;;;;;;5057747;28;20030;-78
2021/11/25 00:33:19;;;;;;;23.00;14.75;;;2.90;99.90;;;;;;5058063;28;20036;-79
2021/11/25 00:35:44;;;;;;;22.33;14.55;;;2.80;99.90;;;;;;5055854;28;20036;-77
2021/11/25 00:38:10;;;;;;;23.50;15.02;;;2.60;99.90;;;;;;5055690;28;20100;-80
2021/11/25 00:40:36;;;;;;;21.48;15.02;;;2.70;99.90;;;;;;5054506;28;20051;-78
2021/11/25 00:43:02;;;;;;;23.75;13.88;;;2.90;99.90;;;;;;5057277;28;20045;-78
2021/11/25 00:45:27;;;;;;;23.70;15.93;;;2.90;99.90;;;;;;5057667;28;20037;-79
2021/11/25 00:47:53;;;;;;;19.77;14.27;;;2.90;99.90;;;;;;5052358;28;20021;-79
2021/11/25 00:50:20;;;;;;;18.25;14.73;;;2.70;99.90;;;;;;5046115;28;20024;-79
2021/11/25 00:52:45;;;;;;;20.15;13.73;;;2.70;99.90;;;;;;5048273;28;20055;-79
2021/11/25 00:55:12;;;;;;;18.88;13.40;;;2.70;99.90;;;;;;5049830;28;20076;-79
2021/11/25 00:57:37;;;;;;;23.63;14.68;;;2.60;99.90;;;;;;5048507;28;20032;-78
2021/11/25 01:00:08;;;;;;;21.17;13.43;;;2.60;99.90;;;;;;5049000;28;20041;-79
2021/11/25 01:02:34;;;;;;;23.65;14.30;;;2.60;99.90;;;;;;5057187;28;20026;-79
2021/11/25 01:05:00;;;;;;;23.42;13.63;;;2.70;99.90;;;;;;5058473;28;20034;-79
2021/11/25 01:07:26;;;;;;;19.92;14.15;;;2.80;99.90;;;;;;5053900;28;20036;-78
2021/11/25 01:09:51;;;;;;;19.90;15.35;;;2.90;99.90;;;;;;5051815;28;20037;-79
2021/11/25 01:12:17;;;;;;;19.92;14.27;;;2.90;99.90;;;;;;5053347;28;20020;-78
2021/11/25 01:14:43;;;;;;;18.75;12.88;;;2.80;99.90;;;;;;5052642;28;20026;-78
2021/11/25 01:17:08;;;;;;;20.75;13.18;;;2.90;99.90;;;;;;5051566;28;20128;-78
2021/11/25 01:19:35;;;;;;;23.65;15.25;;;2.90;99.90;;;;;;5050206;28;20052;-79
2021/11/25 01:22:01;;;;;;;17.40;12.48;;;2.90;99.90;;;;;;5050125;28;20025;-78
2021/11/25 01:24:27;;;;;;;19.10;13.85;;;2.90;99.90;;;;;;5050100;28;20029;-79
2021/11/25 01:26:52;;;;;;;18.58;13.32;;;3.00;99.90;;;;;;5051995;28;20053;-79
2021/11/25 01:29:18;;;;;;;21.27;14.57;;;3.00;99.90;;;;;;5048994;28;20087;-77
2021/11/25 01:31:44;;;;;;;22.30;15.05;;;2.90;99.90;;;;;;5047113;28;20018;-78
2021/11/25 01:34:10;;;;;;;16.95;12.80;;;2.80;99.90;;;;;;5042378;28;20021;-80
2021/11/25 01:36:35;;;;;;;18.83;13.38;;;2.90;99.90;;;;;;5039265;28;20025;-78
2021/11/25 01:39:02;;;;;;;22.67;16.35;;;3.00;99.90;;;;;;5046748;28;20021;-79
2021/11/25 01:41:28;;;;;;;24.13;16.60;;;2.90;99.90;;;;;;5043494;28;20060;-79
2021/11/25 01:43:53;;;;;;;26.20;16.45;;;3.00;99.90;;;;;;5042417;28;20033;-79
2021/11/25 01:46:21;;;;;;;22.35;16.50;;;3.00;99.90;;;;;;5040502;28;20032;-79
2021/11/25 01:48:48;;;;;;;23.98;14.25;;;2.80;99.90;;;;;;5042018;28;20021;-79
2021/11/25 01:51:18;;;;;;;22.80;16.20;;;2.80;99.90;;;;;;5039074;28;20028;-79
2021/11/25 01:53:44;;;;;;;24.10;16.55;;;2.80;99.90;;;;;;5040726;28;20030;-78
2021/11/25 01:56:10;;;;;;;26.13;17.25;;;2.80;99.90;;;;;;5040009;28;20068;-79
2021/11/25 01:58:36;;;;;;;25.48;15.63;;;2.80;99.90;;;;;;5039608;28;20026;-79
2021/11/25 02:01:06;;;;;;;20.13;14.05;;;2.80;99.90;;;;;;5039968;28;20022;-78
2021/11/25 02:03:33;;;;;;;21.77;15.80;;;2.80;99.90;;;;;;5037246;28;20185;-78
2021/11/25 02:05:59;;;;;;;22.10;15.02;;;2.90;99.90;;;;;;5040843;28;20040;-78
2021/11/25 02:08:25;;;;;;;20.52;15.18;;;2.80;99.90;;;;;;5040638;28;20026;-78
2021/11/25 02:10:54;;;;;;;23.30;15.80;;;3.00;99.90;;;;;;5038757;28;20026;-79
2021/11/25 02:13:20;;;;;;;21.65;15.32;;;3.00;99.90;;;;;;5047775;28;20285;-80
2021/11/25 02:15:47;;;;;;;24.43;15.80;;;2.80;99.90;;;;;;5008473;28;1071461;-79
2021/11/25 02:18:18;;;;;;;23.77;16.45;;;2.80;99.90;;;;;;5041545;28;20026;-80
2021/11/25 02:20:47;;;;;;;22.00;16.75;;;2.80;99.90;;;;;;5040829;28;20045;-79
2021/11/25 02:23:14;;;;;;;19.58;14.27;;;2.80;99.90;;;;;;5038242;28;20452;-79
2021/11/25 02:25:40;;;;;;;26.23;16.75;;;2.80;99.90;;;;;;5041032;28;20133;-79
2021/11/25 02:28:07;;;;;;;25.00;14.82;;;2.80;99.90;;;;;;5042559;28;20080;-80
2021/11/25 02:30:32;;;;;;;21.25;14.98;;;2.80;99.90;;;;;;5041508;28;20069;-79
2021/11/25 02:32:58;;;;;;;22.92;16.15;;;2.80;99.90;;;;;;5043456;28;20030;-79
2021/11/25 02:35:27;;;;;;;24.75;16.02;;;2.80;99.90;;;;;;5039884;28;20028;-79
2021/11/25 02:37:54;;;;;;;22.98;15.38;;;2.90;99.90;;;;;;5039156;28;20096;-78
2021/11/25 02:40:32;;;;;;;22.63;16.90;;;2.90;99.90;;;;;;5043888;28;20033;-79
2021/11/25 02:43:06;;;;;;;24.60;16.38;;;2.80;99.90;;;;;;5039723;28;20068;-79
2021/11/25 02:45:42;;;;;;;22.63;15.20;;;3.00;99.90;;;;;;5041744;28;20039;-78
2021/11/25 02:48:08;;;;;;;21.58;14.32;;;3.00;99.90;;;;;;5042249;28;20065;-80
2021/11/25 02:50:34;;;;;;;23.58;15.50;;;2.80;99.90;;;;;;5039280;28;20033;-79
2021/11/25 02:52:59;;;;;;;22.90;15.95;;;2.80;99.90;;;;;;5040903;28;20032;-80
2021/11/25 02:55:25;;;;;;;25.38;17.25;;;2.90;99.90;;;;;;5040716;28;20485;-79
2021/11/25 02:57:51;;;;;;;28.15;18.38;;;2.90;99.90;;;;;;5039319;28;20497;-79
2021/11/25 03:00:30;;;;;;;20.88;15.27;;;2.80;99.90;;;;;;5042407;28;20060;-80
2021/11/25 03:03:06;;;;;;;23.17;15.82;;;2.80;99.90;;;;;;5040791;28;20053;-79
2021/11/25 03:05:32;;;;;;;24.23;15.77;;;2.80;99.90;;;;;;5050947;28;20025;-80
2021/11/25 03:08:04;;;;;;;27.58;18.30;;;2.90;99.90;;;;;;5052304;28;20040;-79
2021/11/25 03:10:38;;;;;;;27.88;15.82;;;2.90;99.90;;;;;;5053767;28;20024;-78
2021/11/25 03:13:05;;;;;;;26.15;17.23;;;2.80;99.90;;;;;;5054008;28;20044;-79
2021/11/25 03:15:33;;;;;;;23.88;16.10;;;2.80;99.90;;;;;;5053051;28;20057;-78
2021/11/25 03:17:59;;;;;;;20.40;14.48;;;2.80;99.90;;;;;;5051898;28;20033;-78
2021/11/25 03:20:25;;;;;;;23.50;15.90;;;2.80;99.90;;;;;;5049939;28;20029;-78
2021/11/25 03:22:51;;;;;;;22.60;16.73;;;2.70;99.90;;;;;;5038982;28;20021;-79
2021/11/25 03:25:16;;;;;;;24.42;15.68;;;2.70;99.90;;;;;;5039707;28;20029;-78
2021/11/25 03:27:42;;;;;;;22.80;15.27;;;2.70;99.90;;;;;;5039948;28;20029;-80
2021/11/25 03:30:08;;;;;;;25.05;15.40;;;2.70;99.90;;;;;;5037826;28;20072;-80
2021/11/25 03:32:34;;;;;;;23.38;15.18;;;2.80;99.90;;;;;;5039287;28;20049;-79
2021/11/25 03:34:59;;;;;;;22.83;15.07;;;2.80;99.90;;;;;;5050731;28;20079;-79
2021/11/25 03:37:25;;;;;;;23.77;16.20;;;2.90;99.90;;;;;;5059154;28;20048;-79
2021/11/25 03:39:51;;;;;;;25.90;15.48;;;2.90;99.90;;;;;;5060527;28;20017;-78
2021/11/25 03:42:16;;;;;;;21.85;15.18;;;2.80;99.90;;;;;;5058939;28;20115;-78
2021/11/25 03:44:44;;;;;;;24.45;17.08;;;2.80;99.90;;;;;;5045219;28;20297;-78
2021/11/25 03:47:10;;;;;;;21.42;15.20;;;2.80;99.90;;;;;;5051016;28;20074;-78
2021/11/25 03:49:36;;;;;;;24.65;16.23;;;2.80;99.90;;;;;;5060763;28;20117;-79
2021/11/25 03:52:02;;;;;;;25.10;16.75;;;2.80;99.90;;;;;;5060163;28;20016;-79
2021/11/25 03:54:28;;;;;;;25.27;17.25;;;2.70;99.90;;;;;;5059475;28;20102;-79
2021/11/25 03:56:53;;;;;;;21.65;15.55;;;2.70;99.90;;;;;;5051218;28;20061;-80
2021/11/25 03:59:19;;;;;;;25.73;18.73;;;2.70;99.90;;;;;;5045367;28;20021;-77
2021/11/25 04:01:44;;;;;;;20.67;14.48;;;2.70;99.90;;;;;;5049120;28;20032;-76
2021/11/25 04:04:10;;;;;;;18.92;13.95;;;2.70;99.90;;;;;;5048661;28;20032;-78
2021/11/25 04:06:36;;;;;;;20.13;13.55;;;2.60;99.90;;;;;;5044726;28;20048;-79
2021/11/25 04:09:03;;;;;;;19.77;14.25;;;2.60;99.90;;;;;;5045091;28;20025;-79
2021/11/25 04:11:29;;;;;;;21.20;13.27;;;2.60;99.90;;;;;;5043812;28;20017;-79
2021/11/25 04:13:56;;;;;;;19.20;14.13;;;2.50;99.90;;;;;;5042223;28;20025;-79
2021/11/25 04:16:21;;;;;;;21.45;15.30;;;2.40;99.90;;;;;;5063128;22;20192;-73
2021/11/25 04:18:47;;;;;;;21.38;14.40;;;2.40;99.90;;;;;;5037877;28;20037;-72
2021/11/25 04:21:12;;;;;;;19.25;13.88;;;2.40;99.90;;;;;;5036410;28;20436;-74
2021/11/25 04:23:38;;;;;;;23.42;14.45;;;2.40;99.90;;;;;;5035997;28;20477;-74
2021/11/25 04:26:04;;;;;;;19.27;13.32;;;2.60;99.90;;;;;;5043670;28;20029;-73
2021/11/25 04:28:30;;;;;;;20.05;14.60;;;2.80;99.90;;;;;;5047021;28;20056;-73
2021/11/25 04:36:24;;;;;;;22.33;14.43;;;3.00;99.90;;;;;;5047845;28;20060;-74
2021/11/25 04:38:49;;;;;;;21.27;14.63;;;3.00;99.90;;;;;;5053843;28;20021;-74
2021/11/25 04:41:15;;;;;;;26.77;16.38;;;3.10;99.90;;;;;;5055041;28;20076;-74
2021/11/25 04:43:41;;;;;;;24.90;17.05;;;3.00;99.90;;;;;;5053119;28;20081;-74
2021/11/25 04:46:06;;;;;;;24.05;15.65;;;2.70;99.90;;;;;;5053239;28;20033;-73
2021/11/25 04:48:32;;;;;;;20.30;14.30;;;2.80;99.90;;;;;;5052772;28;20036;-73
2021/11/25 04:50:58;;;;;;;19.25;14.73;;;2.90;99.90;;;;;;5053915;28;20021;-75
2021/11/25 04:53:24;;;;;;;22.35;15.43;;;3.00;99.90;;;;;;5040251;28;20030;-73
2021/11/25 04:55:51;;;;;;;20.88;15.23;;;3.10;99.90;;;;;;5035591;28;20026;-73
2021/11/25 04:58:16;;;;;;;22.90;15.25;;;2.90;99.90;;;;;;5043301;28;20052;-73
2021/11/25 05:00:43;;;;;;;21.98;15.00;;;2.70;99.90;;;;;;5039552;28;20029;-73
2021/11/25 05:03:09;;;;;;;24.58;15.95;;;2.60;99.90;;;;;;5053702;28;20101;-73
2021/11/25 05:05:35;;;;;;;25.27;17.42;;;2.50;99.90;;;;;;5052925;28;20036;-73
2021/11/25 05:08:01;;;;;;;23.25;15.77;;;2.50;99.90;;;;;;5034359;28;20037;-73
2021/11/25 05:10:26;;;;;;;24.25;15.68;;;2.60;99.90;;;;;;5034661;28;20033;-74
2021/11/25 05:12:52;;;;;;;24.85;16.73;;;2.80;99.90;;;;;;5035844;28;20014;-73
2021/11/25 05:15:18;;;;;;;22.83;15.60;;;2.80;99.90;;;;;;5034513;28;20436;-73
2021/11/25 05:17:43;;;;;;;25.98;16.63;;;2.80;99.90;;;;;;5035867;28;20056;-73
2021/11/25 05:20:12;;;;;;;25.15;15.73;;;2.80;99.90;;;;;;5037668;28;20026;-73
2021/11/25 05:22:37;;;;;;;22.60;16.38;;;3.00;99.90;;;;;;5037398;28;20032;-73
2021/11/25 05:25:05;;;;;;;21.70;15.18;;;3.00;99.90;;;;;;5045656;28;20537;-73
2021/11/25 05:27:31;;;;;;;28.52;17.17;;;2.70;99.90;;;;;;5038726;28;20033;-74
2021/11/25 05:29:57;;;;;;;23.58;16.48;;;2.50;99.90;;;;;;5046635;28;20025;-73
2021/11/25 05:32:22;;;;;;;22.67;15.65;;;2.50;99.90;;;;;;5038353;28;20025;-73
2021/11/25 05:34:48;;;;;;;25.25;16.42;;;2.50;99.90;;;;;;5036918;28;20022;-73
2021/11/25 05:37:15;;;;;;;23.73;16.27;;;2.50;99.90;;;;;;5033249;28;20067;-72
2021/11/25 05:39:41;;;;;;;24.98;16.48;;;2.40;99.90;;;;;;5034734;28;20470;-74
2021/11/25 05:42:07;;;;;;;24.38;16.23;;;2.50;99.90;;;;;;5033995;28;20121;-74
2021/11/25 05:44:33;;;;;;;24.33;16.02;;;2.60;99.90;;;;;;5034632;28;20057;-73
2021/11/25 05:46:59;;;;;;;22.23;15.30;;;2.50;99.90;;;;;;5032965;28;20400;-73
2021/11/25 05:49:25;;;;;;;24.10;16.77;;;2.50;99.90;;;;;;5032416;28;20021;-73
2021/11/25 05:51:50;;;;;;;24.88;16.30;;;2.50;99.90;;;;;;5033078;28;20017;-74
2021/11/25 05:54:16;;;;;;;27.92;16.92;;;2.50;99.90;;;;;;5034290;28;20100;-73
2021/11/25 05:56:42;;;;;;;24.83;17.48;;;2.40;99.90;;;;;;5034116;28;20488;-73
2021/11/25 05:59:07;;;;;;;27.23;18.05;;;2.50;99.90;;;;;;5031789;28;20025;-74
2021/11/25 06:01:33;;;;;;;28.48;17.90;;;2.50;99.90;;;;;;5034459;28;20042;-73
2021/11/25 06:03:59;;;;;;;22.83;15.90;;;2.50;99.90;;;;;;5034567;28;20449;-73
2021/11/25 06:06:24;;;;;;;24.52;16.75;;;2.50;99.90;;;;;;5034348;28;20460;-74
2021/11/25 06:08:50;;;;;;;24.30;17.30;;;2.50;99.90;;;;;;5033954;28;20025;-73
2021/11/25 06:11:16;;;;;;;25.55;17.10;;;2.50;99.90;;;;;;5034176;28;20100;-74
2021/11/25 06:13:42;;;;;;;25.90;16.83;;;2.40;99.90;;;;;;5033663;28;20026;-74
2021/11/25 06:16:08;;;;;;;23.55;17.02;;;2.50;99.90;;;;;;5033651;28;20028;-74
2021/11/25 06:18:34;;;;;;;23.38;16.55;;;2.60;99.90;;;;;;5033300;28;20030;-74
2021/11/25 06:20:59;;;;;;;26.00;17.50;;;2.60;99.90;;;;;;5035086;28;20029;-74
2021/11/25 06:23:25;;;;;;;24.88;17.88;;;2.70;99.90;;;;;;5034731;28;20030;-74
2021/11/25 06:25:51;;;;;;;26.20;17.23;;;2.70;99.90;;;;;;5033203;28;20029;-74
2021/11/25 06:28:17;;;;;;;24.67;16.38;;;2.70;99.90;;;;;;5034516;28;20029;-76
2021/11/25 06:30:42;;;;;;;24.52;16.55;;;2.70;99.90;;;;;;5032135;28;20021;-74
2021/11/25 06:33:08;;;;;;;25.02;17.02;;;2.60;99.90;;;;;;5034286;28;20033;-74
2021/11/25 06:35:34;;;;;;;25.45;16.42;;;2.50;99.90;;;;;;5033599;28;20115;-73
2021/11/25 06:38:00;;;;;;;23.70;17.40;;;2.50;99.90;;;;;;5032379;28;20374;-73
2021/11/25 06:40:28;;;;;;;26.05;17.13;;;2.50;99.90;;;;;;5032303;28;20032;-74
2021/11/25 06:42:54;;;;;;;27.10;18.23;;;2.50;99.90;;;;;;5033316;28;20057;-74
2021/11/25 06:45:21;;;;;;;27.20;18.10;;;2.50;99.90;;;;;;5033193;28;20029;-74
2021/11/25 06:47:47;;;;;;;24.02;16.02;;;2.50;99.90;;;;;;5033114;28;20069;-74
2021/11/25 06:50:14;;;;;;;23.45;16.38;;;2.40;99.90;;;;;;5033517;28;20017;-75
2021/11/25 06:52:40;;;;;;;28.52;17.50;;;2.40;99.90;;;;;;5034122;28;20107;-74
2021/11/25 06:55:08;;;;;;;26.02;17.73;;;2.40;99.90;;;;;;5033898;28;20465;-74
2021/11/25 06:57:35;;;;;;;27.65;18.10;;;2.40;99.90;;;;;;5033158;28;20021;-74
2021/11/25 07:00:04;;;;;;;30.48;16.98;;;2.50;99.90;;;;;;5033043;28;20036;-74
2021/11/25 07:02:30;;;;;;;27.92;18.88;;;2.50;99.90;;;;;;5032864;28;20025;-75
2021/11/25 07:04:57;;;;;;;27.38;17.48;;;2.60;99.90;;;;;;5032729;28;20052;-74
2021/11/25 07:07:22;;;;;;;26.95;18.17;;;2.60;99.90;;;;;;5033160;28;20025;-74
2021/11/25 07:09:48;;;;;;;23.00;16.48;;;2.60;99.90;;;;;;5037971;28;20097;-74
2021/11/25 07:12:13;;;;;;;27.02;17.13;;;2.60;99.90;;;;;;5039715;28;20039;-74
2021/11/25 07:14:39;;;;;;;24.80;16.70;;;2.90;99.90;;;;;;5038608;28;20354;-74
2021/11/25 07:17:05;;;;;;;25.58;16.30;;;3.10;99.90;;;;;;5037722;28;20036;-74
2021/11/25 07:19:30;;;;;;;27.58;16.80;;;3.30;99.90;;;;;;5037768;28;20025;-74
2021/11/25 07:21:56;;;;;;;24.13;15.07;;;3.20;99.90;;;;;;5037426;28;20040;-74
2021/11/25 07:24:21;;;;;;;23.98;15.65;;;3.30;99.90;;;;;;5038043;28;20034;-74
2021/11/25 07:26:47;;;;;;;25.05;16.35;;;3.20;99.90;;;;;;5038760;28;20033;-73
2021/11/25 07:29:13;;;;;;;22.98;16.23;;;3.00;99.90;;;;;;5036376;28;20057;-74
2021/11/25 07:31:39;;;;;;;27.17;17.83;;;2.90;99.90;;;;;;5036211;28;20671;-73
2021/11/25 07:34:05;;;;;;;25.42;17.05;;;2.80;99.90;;;;;;5037869;28;20040;-73
2021/11/25 07:36:30;;;;;;;25.38;17.00;;;2.70;99.90;;;;;;5037887;28;20028;-73
2021/11/25 07:38:56;;;;;;;26.20;17.48;;;2.70;99.90;;;;;;5037298;28;20404;-73
2021/11/25 07:41:21;;;;;;;24.77;16.33;;;2.70;99.90;;;;;;5037681;28;20025;-73
2021/11/25 07:43:47;;;;;;;26.27;17.02;;;2.80;99.90;;;;;;5035700;28;20033;-74
2021/11/25 07:46:13;;;;;;;26.40;17.00;;;2.80;99.90;;;;;;5037839;28;20083;-73
2021/11/25 07:48:38;;;;;;;25.40;16.83;;;2.80;99.90;;;;;;5053840;28;20022;-74
2021/11/25 07:51:04;;;;;;;28.55;17.38;;;3.00;99.90;;;;;;5039249;28;20472;-74
2021/11/25 07:53:30;;;;;;;25.05;16.63;;;3.00;99.90;;;;;;5036725;28;20096;-74
2021/11/25 07:55:56;;;;;;;24.73;16.30;;;3.00;99.90;;;;;;5036745;28;20025;-73
2021/11/25 07:58:22;;;;;;;24.42;17.70;;;3.10;99.90;;;;;;5036654;28;20370;-73
2021/11/25 08:00:49;;;;;;;23.20;15.70;;;3.30;99.90;;;;;;5037319;28;20022;-73
2021/11/25 08:03:15;;;;;;;27.20;18.40;;;3.30;99.90;;;;;;5038409;28;20428;-74
2021/11/25 08:05:40;;;;;;;27.77;18.65;;;3.30;99.90;;;;;;5038677;28;20021;-74
2021/11/25 08:08:09;;;;;;;29.63;18.73;;;3.10;99.90;;;;;;5038618;28;20033;-74
2021/11/25 08:10:35;;;;;;;29.17;19.52;;;3.10;99.90;;;;;;5036678;28;20048;-74
2021/11/25 08:13:03;;;;;;;33.40;20.42;;;3.10;99.90;;;;;;5037374;28;20411;-73
2021/11/25 08:15:29;;;;;;;27.23;18.27;;;3.10;99.90;;;;;;5035601;28;20025;-73
2021/11/25 08:17:55;;;;;;;26.67;18.77;;;3.10;99.90;;;;;;5037651;28;20045;-73
2021/11/25 08:20:21;;;;;;;26.67;17.52;;;3.10;99.90;;;;;;5037725;28;20492;-74
2021/11/25 08:22:47;;;;;;;27.15;17.63;;;3.10;99.90;;;;;;5037028;28;20029;-74
2021/11/25 08:25:12;;;;;;;28.67;18.85;;;3.10;99.90;;;;;;5037850;28;20045;-73
2021/11/25 08:27:38;;;;;;;29.25;19.15;;;3.10;99.90;;;;;;5035364;28;20494;-73
2021/11/25 08:30:07;;;;;;;27.80;17.38;;;3.10;99.90;;;;;;5036874;28;20038;-73
2021/11/25 08:32:33;;;;;;;26.63;17.65;;;3.30;99.90;;;;;;5037224;28;20083;-74
2021/11/25 08:34:59;;;;;;;29.48;18.33;;;3.50;99.90;;;;;;5036811;28;20072;-73
2021/11/25 08:37:25;;;;;;;28.08;19.17;;;3.70;99.90;;;;;;5036834;28;20033;-73
2021/11/25 08:39:51;;;;;;;30.40;18.67;;;3.80;99.90;;;;;;5036946;28;20025;-73
2021/11/25 08:42:16;;;;;;;28.40;17.20;;;3.70;99.90;;;;;;5037502;28;20396;-73
2021/11/25 08:44:42;;;;;;;28.05;18.52;;;3.60;99.90;;;;;;5051030;28;20026;-73
2021/11/25 08:47:08;;;;;;;28.70;18.65;;;3.40;99.90;;;;;;5053292;28;20021;-73
2021/11/25 08:49:33;;;;;;;29.92;19.25;;;3.40;99.90;;;;;;5039593;28;20064;-74
2021/11/25 08:51:59;;;;;;;28.80;19.63;;;3.40;99.90;;;;;;5036250;28;20464;-74
2021/11/25 08:54:25;;;;;;;26.42;17.50;;;3.40;99.90;;;;;;5037229;28;20095;-73
2021/11/25 08:56:52;;;;;;;28.10;18.67;;;3.40;99.90;;;;;;5037331;28;20099;-73
2021/11/25 08:59:18;;;;;;;25.65;17.63;;;3.40;99.90;;;;;;5037862;28;20437;-73
2021/11/25 09:01:44;;;;;;;26.35;17.95;;;3.70;99.90;;;;;;5040709;28;20074;-74
2021/11/25 09:04:09;;;;;;;29.02;20.60;;;3.60;99.90;;;;;;5038646;28;20033;-74
2021/11/25 09:06:35;;;;;;;28.02;17.30;;;3.60;99.90;;;;;;5038053;28;20021;-74
2021/11/25 09:09:02;;;;;;;32.92;18.52;;;3.50;99.90;;;;;;5036336;28;20069;-73
2021/11/25 09:11:28;;;;;;;28.95;19.48;;;3.50;99.90;;;;;;5035950;28;20030;-74
2021/11/25 09:13:54;;;;;;;27.58;17.48;;;3.40;99.90;;;;;;5036055;28;20018;-73
2021/11/25 09:16:19;;;;;;;28.17;16.85;;;3.40;99.90;;;;;;5035747;28;20061;-73
2021/11/25 09:18:45;;;;;;;32.40;18.02;;;3.40;99.90;;;;;;5036508;28;20053;-74
2021/11/25 09:21:11;;;;;;;29.42;18.42;;;3.40;99.90;;;;;;5037623;28;20104;-74
2021/11/25 09:23:37;;;;;;;29.83;19.00;;;3.40;99.90;;;;;;5052164;28;20025;-74
2021/11/25 09:26:03;;;;;;;30.25;18.70;;;3.40;99.90;;;;;;5051615;28;20500;-74
2021/11/25 09:28:29;;;;;;;26.73;17.25;;;3.40;99.90;;;;;;5052178;28;20029;-74
2021/11/25 09:30:55;;;;;;;28.50;17.10;;;3.40;99.90;;;;;;5050633;28;20089;-74
2021/11/25 09:33:21;;;;;;;25.60;16.95;;;3.40;99.90;;;;;;5044640;28;20017;-75
2021/11/25 09:35:48;;;;;;;28.63;18.58;;;3.40;99.90;;;;;;5037115;28;20025;-74
2021/11/25 09:38:15;;;;;;;29.25;19.95;;;3.60;99.90;;;;;;5036920;28;20064;-74
2021/11/25 09:40:43;;;;;;;29.48;18.08;;;3.90;99.90;;;;;;5034182;28;20021;-74
2021/11/25 09:43:11;;;;;;;28.23;17.92;;;4.10;99.90;;;;;;5035628;28;20100;-74
2021/11/25 09:45:41;;;;;;;28.35;18.08;;;4.10;99.90;;;;;;5035125;28;20089;-74
2021/11/25 09:48:11;;;;;;;30.98;18.67;;;4.20;99.90;;;;;;5034141;28;20024;-74
2021/11/25 09:50:41;;;;;;;33.42;19.73;;;4.10;99.90;;;;;;5032408;28;20037;-74
2021/11/25 09:53:09;;;;;;;28.00;18.38;;;4.10;99.90;;;;;;5034216;28;20063;-74
2021/11/25 09:55:36;;;;;;;27.67;19.42;;;4.10;99.90;;;;;;5033603;28;20022;-74
2021/11/25 09:58:03;;;;;;;27.83;18.63;;;4.10;99.90;;;;;;5033792;28;20111;-74
2021/11/25 10:00:32;;;;;;;30.95;18.50;;;4.20;99.90;;;;;;5039595;28;20021;-75
2021/11/25 10:02:58;;;;;;;26.67;17.15;;;4.40;99.90;;;;;;5038598;28;20060;-73
2021/11/25 10:05:24;;;;;;;32.13;19.55;;;4.10;99.90;;;;;;5034263;28;20026;-73
2021/11/25 10:07:50;;;;;;;28.65;18.30;;;4.00;99.90;;;;;;5033485;28;20044;-73
2021/11/25 10:10:20;;;;;;;25.77;18.10;;;4.10;99.90;;;;;;5033960;28;20038;-73
2021/11/25 10:12:47;;;;;;;28.25;18.77;;;4.20;99.90;;;;;;5033124;28;20044;-74
2021/11/25 10:15:35;;;;;;;31.88;19.08;;;4.30;99.90;;;;;;5034399;28;20017;-74
2021/11/25 10:18:13;;;;;;;37.15;19.27;;;4.00;99.90;;;;;;5061175;22;20041;-80
2021/11/25 10:20:41;;;;;;;29.98;19.75;;;3.80;99.90;;;;;;5041086;28;20021;-80
2021/11/25 10:23:13;;;;;;;32.78;20.10;;;3.70;99.90;;;;;;5042157;28;20067;-77
2021/11/25 10:25:44;;;;;;;32.03;19.65;;;3.70;99.90;;;;;;5040839;28;20611;-79
2021/11/25 10:28:21;;;;;;;32.40;19.90;;;3.80;99.90;;;;;;5042539;28;20086;-79
2021/11/25 10:30:53;;;;;;;26.88;18.92;;;3.90;99.90;;;;;;5046615;28;20022;-80
2021/11/25 10:33:29;;;;;;;32.40;18.92;;;4.00;99.90;;;;;;5041499;28;20031;-79
2021/11/25 10:36:16;;;;;;;31.33;18.50;;;3.80;99.90;;;;;;5042901;28;20122;-80
2021/11/25 10:41:20;;;;;;;29.27;19.60;;;4.40;99.90;;;;;;5040528;28;20028;-79
2021/11/25 10:44:05;;;;;;;26.63;18.63;;;4.60;99.90;;;;;;5042446;28;20026;-80
2021/11/25 10:46:48;;;;;;;27.30;18.55;;;4.60;99.90;;;;;;5040741;28;20034;-79
2021/11/25 10:49:14;;;;;;;27.05;17.55;;;4.70;99.90;;;;;;5040601;28;20036;-79
2021/11/25 10:51:43;;;;;;;28.42;18.08;;;4.80;99.90;;;;;;5041929;28;20036;-79
2021/11/25 10:54:14;;;;;;;26.88;16.83;;;4.50;99.90;;;;;;5042093;28;20073;-80
2021/11/25 10:56:44;;;;;;;27.23;18.77;;;4.50;99.90;;;;;;5042489;28;20021;-79
2021/11/25 10:59:14;;;;;;;26.30;18.17;;;4.70;99.90;;;;;;5041579;28;20026;-80
2021/11/25 11:01:46;;;;;;;28.85;18.20;;;4.70;99.90;;;;;;5042838;28;20028;-79
2021/11/25 11:04:14;;;;;;;30.95;18.65;;;4.40;99.90;;;;;;5048386;28;20025;-79
2021/11/25 11:06:42;;;;;;;28.25;17.90;;;4.10;99.90;;;;;;5044877;28;20472;-79
2021/11/25 11:09:35;;;;;;;29.63;20.02;;;4.00;99.90;;;;;;5041392;28;20044;-80
2021/11/25 11:12:17;;;;;;;26.65;18.05;;;4.40;99.90;;;;;;5031747;28;20029;-79
2021/11/25 11:15:33;;;;;;;27.00;17.90;;;4.70;99.90;;;;;;5043090;28;20021;-79
2021/11/25 11:17:58;;;;;;;24.10;16.63;;;4.70;99.90;;;;;;5037029;28;20037;-79
2021/11/25 11:20:24;;;;;;;25.08;16.17;;;4.70;99.90;;;;;;5043794;28;20044;-78
2021/11/25 11:22:58;;;;;;;28.58;18.90;;;4.70;99.90;;;;;;5046970;28;20073;-79
2021/11/25 11:25:25;;;;;;;30.90;18.02;;;4.70;99.90;;;;;;5046197;28;20053;-79
2021/11/25 11:27:53;;;;;;;28.98;20.15;;;4.50;99.90;;;;;;5042007;28;20527;-79
2021/11/25 11:30:20;;;;;;;27.83;17.52;;;4.30;99.90;;;;;;5042462;28;20053;-78
2021/11/25 11:32:46;;;;;;;29.05;18.67;;;4.30;99.90;;;;;;5045963;28;20081;-81
2021/11/25 11:35:13;;;;;;;27.27;18.63;;;4.50;99.90;;;;;;5044359;28;20032;-79
2021/11/25 11:37:40;;;;;;;30.30;17.83;;;4.60;99.90;;;;;;5046014;28;20017;-78
2021/11/25 11:40:08;;;;;;;28.15;17.70;;;4.70;99.90;;;;;;5040671;28;20499;-79
2021/11/25 11:42:35;;;;;;;28.25;18.38;;;4.70;99.90;;;;;;5040497;28;20516;-80
2021/11/25 11:45:03;;;;;;;28.20;18.02;;;4.70;99.90;;;;;;5041972;28;20093;-81
2021/11/25 11:47:29;;;;;;;26.48;17.20;;;4.80;99.90;;;;;;5043614;28;20021;-79
2021/11/25 11:50:01;;;;;;;26.98;18.10;;;4.90;99.90;;;;;;5043265;28;20077;-79
2021/11/25 11:52:27;;;;;;;26.70;18.48;;;4.90;99.90;;;;;;5043492;28;20028;-80
2021/11/25 11:54:55;;;;;;;27.60;17.02;;;5.00;99.90;;;;;;5043151;28;20030;-79
2021/11/25 11:57:40;;;;;;;30.70;19.50;;;4.90;99.90;;;;;;5042958;28;20033;-79
2021/11/25 12:00:28;;;;;;;28.85;18.70;;;4.90;99.90;;;;;;5049342;28;20105;-77
2021/11/25 12:02:58;;;;;;;27.80;17.27;;;4.90;99.90;;;;;;5051401;28;20048;-78
2021/11/25 12:05:39;;;;;;;25.63;16.95;;;5.00;99.90;;;;;;5049493;28;20072;-78
2021/11/25 12:08:20;;;;;;;28.58;18.38;;;5.00;99.90;;;;;;5051521;28;20021;-80
2021/11/25 12:11:04;;;;;;;28.98;19.00;;;5.00;99.90;;;;;;5060233;28;20056;-80
2021/11/25 12:13:55;;;;;;;28.52;18.45;;;4.90;99.90;;;;;;5057126;28;20060;-79
2021/11/25 12:16:21;;;;;;;26.00;17.60;;;4.60;99.90;;;;;;5042148;28;20041;-79
2021/11/25 12:19:10;;;;;;;26.92;17.95;;;4.50;99.90;;;;;;5056618;28;20024;-79
2021/11/25 12:21:48;;;;;;;27.77;18.42;;;4.40;99.90;;;;;;5042841;28;20057;-80
2021/11/25 12:24:18;;;;;;;24.67;16.75;;;4.30;99.90;;;;;;5054241;28;20018;-80
2021/11/25 12:27:05;;;;;;;27.80;17.95;;;4.30;99.90;;;;;;5051236;28;20032;-80
2021/11/25 12:29:41;;;;;;;26.52;18.15;;;4.10;99.90;;;;;;5051857;28;20024;-78
2021/11/25 12:32:41;;;;;;;26.55;18.77;;;3.80;99.90;;;;;;5051643;28;20133;-79
2021/11/25 12:35:24;;;;;;;27.23;17.25;;;3.80;99.90;;;;;;5048793;28;20021;-80
2021/11/25 12:37:52;;;;;;;30.73;20.10;;;3.70;99.90;;;;;;5045579;28;20033;-80
2021/11/25 12:40:21;;;;;;;26.05;17.77;;;3.70;99.90;;;;;;5045471;28;20073;-79
2021/11/25 12:43:06;;;;;;;30.08;19.70;;;3.80;99.90;;;;;;5046935;28;20032;-80
2021/11/25 12:45:37;;;;;;;29.98;20.25;;;3.80;99.90;;;;;;5040228;28;20190;-79
2021/11/25 12:48:08;;;;;;;31.50;19.25;;;3.80;99.90;;;;;;5059126;28;20042;-79